SU1768 / RA-89124 7700 Squawk Report (27th of March, 2020)

Time Lat Lon Altitude Heading Speed Vertical Rate
2020-03-27 12:53:37 GMT 58.162033 54.745937 16,575 87 376 -1472
2020-03-27 12:53:31 GMT 58.161530 54.722546 16,850 87 377 -1600
2020-03-27 12:53:19 GMT 58.160736 54.686554 17,125 87 376 -1600
2020-03-27 12:53:10 GMT 58.159992 54.654144 17,375 87 373 -1472
2020-03-27 12:52:57 GMT 58.159103 54.615604 17,675 87 371 -1472
2020-03-27 12:52:47 GMT 58.158325 54.582649 17,925 87 370 -1408
2020-03-27 12:52:37 GMT 58.157524 54.548767 18,175 87 372 -1536
2020-03-27 12:52:26 GMT 58.156723 54.515488 18,425 87 373 -1472
2020-03-27 12:52:16 GMT 58.155853 54.479519 18,700 87 376 -1472
2020-03-27 12:52:06 GMT 58.155075 54.447002 18,950 87 379 -1664
2020-03-27 12:51:54 GMT 58.154221 54.410339 19,275 87 381 -1984
2020-03-27 12:51:45 GMT 58.153336 54.375000 19,625 87 383 -1984
2020-03-27 12:51:33 GMT 58.152466 54.340240 19,975 87 386 -1920
2020-03-27 12:51:23 GMT 58.151566 54.304047 20,325 87 388 -1984
2020-03-27 12:51:13 GMT 58.150635 54.266602 20,675 87 391 -1984
2020-03-27 12:51:02 GMT 58.149719 54.230907 21,025 87 393 -1984
2020-03-27 12:50:50 GMT 58.148727 54.193268 21,375 87 395 -1984
2020-03-27 12:50:40 GMT 58.147655 54.153259 21,775 86 396 -1984
2020-03-27 12:50:30 GMT 58.146790 54.120956 22,075 86 397 -1920
2020-03-27 12:50:18 GMT 58.145699 54.081665 22,450 86 397 -2048
2020-03-27 12:50:09 GMT 58.144730 54.047241 22,775 86 397 -2048
2020-03-27 12:49:57 GMT 58.143723 54.010738 23,125 86 399 -1984
2020-03-27 12:49:48 GMT 58.142715 53.973705 23,475 87 403 -1984
2020-03-27 12:49:37 GMT 58.141697 53.936462 23,825 87 406 -1984
2020-03-27 12:49:25 GMT 58.140625 53.897736 24,200 87 409 -2048
2020-03-27 12:49:16 GMT 58.139603 53.861572 24,525 86 412 -1536
2020-03-27 12:49:05 GMT 58.138531 53.823303 24,775 86 416 -1536
2020-03-27 12:48:54 GMT 58.137321 53.781464 25,075 86 418 -1536
2020-03-27 12:48:43 GMT 58.136250 53.745300 25,325 86 420 -1536
2020-03-27 12:48:33 GMT 58.135086 53.706757 25,575 86 422 -1536
2020-03-27 12:48:23 GMT 58.133877 53.668030 25,850 86 422 -1472
2020-03-27 12:48:12 GMT 58.132645 53.628521 26,100 86 423 -1408
2020-03-27 12:48:02 GMT 58.131500 53.590210 26,350 86 425 -1472
2020-03-27 12:47:51 GMT 58.130104 53.545258 26,675 86 428 -1536
2020-03-27 12:47:39 GMT 58.128895 53.505707 26,925 86 431 -1472
2020-03-27 12:47:28 GMT 58.127655 53.465851 27,175 86 435 -1408
2020-03-27 12:47:18 GMT 58.126373 53.424389 27,450 86 439 -1408
2020-03-27 12:47:06 GMT 58.125076 53.383392 27,700 86 442 -1536
2020-03-27 12:46:57 GMT 58.123718 53.340660 27,975 86 445 -1600
2020-03-27 12:46:45 GMT 58.122379 53.299622 28,250 86 447 -1024
2020-03-27 12:46:35 GMT 58.120934 53.257050 28,425 86 449 -896
2020-03-27 12:46:23 GMT 58.119583 53.215942 28,575 86 450 -960
2020-03-27 12:46:14 GMT 58.118187 53.175201 28,750 86 450 -1024
2020-03-27 12:46:02 GMT 58.116714 53.132629 28,925 86 450 -832
2020-03-27 12:45:52 GMT 58.115253 53.089691 29,000 86 451 0
2020-03-27 12:45:41 GMT 58.113647 53.044296 29,000 86 452 0
2020-03-27 12:45:29 GMT 58.112228 53.002831 29,000 86 453 -128
2020-03-27 12:45:19 GMT 58.110718 52.961102 29,025 86 453 0
2020-03-27 12:45:09 GMT 58.109249 52.920319 29,025 86 453 0
2020-03-27 12:44:57 GMT 58.107716 52.878296 29,025 86 452 -64
2020-03-27 12:44:47 GMT 58.106133 52.835083 29,025 86 451 0
2020-03-27 12:44:35 GMT 58.104549 52.791962 29,000 85 451 64
2020-03-27 12:44:26 GMT 58.102982 52.749348 29,000 85 452 128
2020-03-27 12:44:14 GMT 58.101475 52.709473 29,000 85 453 64
2020-03-27 12:44:05 GMT 58.099937 52.668457 29,000 85 454 -64
2020-03-27 12:43:53 GMT 58.098217 52.623871 29,000 85 454 0
2020-03-27 12:43:43 GMT 58.096664 52.584641 29,000 85 453 -128
2020-03-27 12:43:33 GMT 58.095062 52.543354 29,000 85 452 0
2020-03-27 12:43:21 GMT 58.093323 52.499763 29,000 85 451 0
2020-03-27 12:43:12 GMT 58.091675 52.458298 29,000 85 450 0
2020-03-27 12:43:01 GMT 58.089981 52.416039 29,000 85 450 -64
2020-03-27 12:42:50 GMT 58.088303 52.374023 29,000 85 450 0
2020-03-27 12:42:38 GMT 58.086578 52.330994 29,025 85 450 0
2020-03-27 12:42:29 GMT 58.084991 52.291645 29,000 85 451 64
2020-03-27 12:42:18 GMT 58.083275 52.249054 29,000 85 453 0
2020-03-27 12:42:07 GMT 58.081551 52.207672 29,000 85 455 -128
2020-03-27 12:41:57 GMT 58.079773 52.164326 29,025 85 456 64
2020-03-27 12:41:45 GMT 58.078033 52.123569 29,000 85 456 -64
2020-03-27 12:41:35 GMT 58.076199 52.080139 29,000 85 457 0
2020-03-27 12:41:24 GMT 58.074474 52.039948 29,000 85 457 0
2020-03-27 12:41:13 GMT 58.072567 51.996368 29,000 85 457 0
2020-03-27 12:41:04 GMT 58.070705 51.954346 29,000 85 456 -64
2020-03-27 12:40:52 GMT 58.068787 51.911373 29,000 85 455 -64
2020-03-27 12:40:43 GMT 58.066978 51.871307 29,000 85 454 0
2020-03-27 12:40:32 GMT 58.065033 51.827827 29,000 85 453 0
2020-03-27 12:40:21 GMT 58.063248 51.788486 29,000 85 453 64
2020-03-27 12:40:11 GMT 58.061302 51.745422 29,000 85 453 -64
2020-03-27 12:39:59 GMT 58.059311 51.701927 29,025 85 453 0
2020-03-27 12:39:49 GMT 58.057392 51.660736 29,000 84 453 64
2020-03-27 12:39:37 GMT 58.055420 51.618111 29,000 84 453 -64
2020-03-27 12:39:28 GMT 58.053528 51.577423 29,000 84 452 -64
2020-03-27 12:39:17 GMT 58.051479 51.533844 29,025 84 451 0
2020-03-27 12:39:06 GMT 58.049431 51.490814 29,000 84 451 64
2020-03-27 12:38:54 GMT 58.047455 51.449505 29,000 84 452 -64
2020-03-27 12:38:45 GMT 58.045441 51.408306 29,000 84 452 0
2020-03-27 12:38:33 GMT 58.043427 51.367107 29,000 84 452 -128
2020-03-27 12:38:22 GMT 58.041283 51.323639 29,025 84 453 128
2020-03-27 12:38:13 GMT 58.039261 51.282230 29,000 84 454 -64
2020-03-27 12:38:01 GMT 58.037186 51.241150 29,000 84 454 0
2020-03-27 12:37:52 GMT 58.035141 51.200188 29,025 84 453 64
2020-03-27 12:37:40 GMT 58.033043 51.158844 29,000 84 453 0
2020-03-27 12:37:30 GMT 58.030930 51.116726 29,000 84 453 0
2020-03-27 12:37:20 GMT 58.028854 51.076080 29,000 84 453 0
2020-03-27 12:37:09 GMT 58.026714 51.034149 29,000 84 454 0
2020-03-27 12:36:59 GMT 58.024521 50.991180 29,000 84 455 -64
2020-03-27 12:36:47 GMT 58.022430 50.951202 29,000 84 456 128
2020-03-27 12:36:36 GMT 58.020195 50.907806 29,000 84 457 0
2020-03-27 12:36:27 GMT 58.018066 50.867584 29,000 84 458 -128
2020-03-27 12:36:15 GMT 58.015774 50.824219 29,000 84 458 0
2020-03-27 12:36:06 GMT 58.013580 50.782883 29,000 84 456 0
2020-03-27 12:35:54 GMT 58.011200 50.739559 29,000 84 455 0
2020-03-27 12:35:44 GMT 58.009022 50.698792 29,000 84 455 0
2020-03-27 12:35:34 GMT 58.006668 50.655300 29,000 84 456 -64
2020-03-27 12:35:23 GMT 58.004322 50.612457 29,025 84 456 64
2020-03-27 12:35:11 GMT 58.001862 50.567677 29,025 84 456 -64
2020-03-27 12:35:01 GMT 57.999527 50.525665 29,000 84 457 64
2020-03-27 12:34:50 GMT 57.997238 50.484303 29,000 83 458 0
2020-03-27 12:34:39 GMT 57.994919 50.442169 29,000 84 459 64
2020-03-27 12:34:29 GMT 57.992477 50.398628 29,000 83 460 0
2020-03-27 12:34:18 GMT 57.989960 50.354858 29,000 83 461 0
2020-03-27 12:34:07 GMT 57.987488 50.311005 29,000 83 461 -128
2020-03-27 12:33:46 GMT 57.982681 50.227367 29,000 83 460 0
2020-03-27 12:33:33 GMT 57.979881 50.179413 29,000 83 460 0
2020-03-27 12:33:23 GMT 57.977692 50.141869 29,000 83 460 0
2020-03-27 12:33:14 GMT 57.975319 50.101044 29,000 83 461 0
2020-03-27 12:33:01 GMT 57.972473 50.053444 29,000 83 461 0
2020-03-27 12:32:53 GMT 57.970337 50.016907 29,000 83 462 -64
2020-03-27 12:32:42 GMT 57.967731 49.973419 29,000 83 462 -64
2020-03-27 12:32:30 GMT 57.965149 49.930912 29,025 83 461 128
2020-03-27 12:32:20 GMT 57.962517 49.887268 29,000 83 462 0
2020-03-27 12:32:10 GMT 57.960094 49.846985 29,000 83 463 64
2020-03-27 12:31:58 GMT 57.957367 49.802795 29,000 83 464 -256
2020-03-27 12:31:47 GMT 57.954712 49.759205 29,000 83 464 0
2020-03-27 12:31:38 GMT 57.952183 49.718994 29,000 83 465 -128
2020-03-27 12:31:26 GMT 57.949493 49.675480 29,025 83 466 0
2020-03-27 12:31:16 GMT 57.946594 49.629089 29,000 83 466 64
We lost coverage of the aircraft here for a total of 8 minutes
2020-03-27 12:23:21 GMT 57.625214 47.901764 30,525 65 460 -1472
2020-03-27 12:23:15 GMT 57.619148 47.877178 30,675 65 460 -1472
2020-03-27 12:23:09 GMT 57.614586 47.858837 30,800 65 463 -1408
2020-03-27 12:22:58 GMT 57.604950 47.820030 31,050 65 467 -1472
2020-03-27 12:22:48 GMT 57.595551 47.782204 31,300 65 471 -1600
2020-03-27 12:22:38 GMT 57.586842 47.747379 31,550 64 473 -1536
2020-03-27 12:22:27 GMT 57.576599 47.706673 31,850 64 473 -1472
2020-03-27 12:22:17 GMT 57.567307 47.669594 32,075 64 472 -1408
2020-03-27 12:22:08 GMT 57.558071 47.633087 32,325 64 473 -1536
2020-03-27 12:21:57 GMT 57.548767 47.596035 32,550 64 473 -1152
2020-03-27 12:21:47 GMT 57.539383 47.558868 32,750 64 475 -1024
2020-03-27 12:21:37 GMT 57.529770 47.520741 32,925 64 474 -1024
2020-03-27 12:21:27 GMT 57.519852 47.481316 33,100 64 473 -960
2020-03-27 12:21:15 GMT 57.510170 47.442684 33,275 65 472 -960
2020-03-27 12:21:06 GMT 57.501415 47.407513 33,425 65 471 -1024
2020-03-27 12:20:55 GMT 57.492050 47.369015 33,625 65 470 -1024
2020-03-27 12:20:46 GMT 57.482937 47.330875 33,800 66 470 -960
2020-03-27 12:20:34 GMT 57.473236 47.290218 33,950 66 470 -960
2020-03-27 12:20:25 GMT 57.465012 47.255741 34,100 66 472 -960
2020-03-27 12:20:14 GMT 57.454494 47.211708 34,300 66 474 -960
2020-03-27 12:20:11 GMT 57.453144 47.206127 34,325 66 474 -896
2020-03-27 12:20:01 GMT 57.444157 47.168560 34,475 66 477 -960
2020-03-27 12:19:54 GMT 57.437641 47.141357 34,575 66 477 -896
2020-03-27 12:19:49 GMT 57.432522 47.120094 34,675 66 477 -960
2020-03-27 12:19:43 GMT 57.428009 47.101307 34,750 66 477 -1024
2020-03-27 12:19:33 GMT 57.418396 47.061481 34,950 65 477 -832
2020-03-27 12:19:21 GMT 57.407822 47.017536 35,000 65 477 64
2020-03-27 12:19:13 GMT 57.400818 46.988705 35,000 65 478 0
2020-03-27 12:19:08 GMT 57.396862 46.972313 35,000 65 477 0
2020-03-27 12:19:02 GMT 57.391342 46.949818 35,000 65 477 0
2020-03-27 12:18:59 GMT 57.387817 46.935394 35,000 65 477 0
2020-03-27 12:18:53 GMT 57.380009 46.903648 35,000 65 477 64
2020-03-27 12:18:40 GMT 57.370651 46.865616 35,000 65 477 0
2020-03-27 12:18:31 GMT 57.363064 46.832767 35,000 68 479 0
2020-03-27 12:18:27 GMT 57.359993 46.818325 35,000 68 480 0
2020-03-27 12:18:19 GMT 57.353565 46.785900 35,000 70 481 0
2020-03-27 12:18:10 GMT 57.347168 46.749229 35,000 73 483 0
2020-03-27 12:17:59 GMT 57.340897 46.706917 35,000 76 486 0
2020-03-27 12:17:49 GMT 57.335999 46.666920 35,000 78 487 0
2020-03-27 12:17:40 GMT 57.331558 46.627438 35,000 78 486 0
2020-03-27 12:17:30 GMT 57.327454 46.591156 35,000 78 486 -64
2020-03-27 12:17:20 GMT 57.322723 46.549244 35,000 78 485 64
2020-03-27 12:17:09 GMT 57.317814 46.506104 35,000 78 484 64
2020-03-27 12:17:00 GMT 57.312973 46.463661 35,000 78 484 -64
2020-03-27 12:16:49 GMT 57.308552 46.424946 35,000 78 484 0
2020-03-27 12:16:43 GMT 57.305714 46.400314 35,000 78 483 0
2020-03-27 12:16:37 GMT 57.303085 46.377151 35,000 78 483 0
2020-03-27 12:16:27 GMT 57.298141 46.334496 35,025 77 482 -64
2020-03-27 12:16:17 GMT 57.293514 46.294437 35,025 77 482 0
2020-03-27 12:16:07 GMT 57.288952 46.255013 35,000 77 483 0
2020-03-27 12:15:57 GMT 57.284134 46.213303 35,000 77 484 0
2020-03-27 12:15:46 GMT 57.279411 46.172791 35,000 77 484 0
2020-03-27 12:15:36 GMT 57.274475 46.130562 35,000 77 484 0
2020-03-27 12:15:26 GMT 57.269714 46.089706 35,000 77 486 0
2020-03-27 12:15:16 GMT 57.265118 46.050346 35,000 77 486 0
2020-03-27 12:15:07 GMT 57.260368 46.010300 35,000 77 486 0
2020-03-27 12:14:56 GMT 57.255527 45.969013 35,000 77 486 0
2020-03-27 12:14:45 GMT 57.250221 45.924625 35,000 77 486 0
2020-03-27 12:14:35 GMT 57.245472 45.884579 35,000 77 486 -64
2020-03-27 12:14:25 GMT 57.240051 45.839169 35,000 77 485 0
2020-03-27 12:14:13 GMT 57.234581 45.793407 35,000 77 485 -64
2020-03-27 12:14:04 GMT 57.230576 45.759773 35,000 77 485 0
2020-03-27 12:13:55 GMT 57.225403 45.717113 35,000 77 484 0
2020-03-27 12:13:44 GMT 57.220798 45.678673 35,000 77 484 0
2020-03-27 12:13:34 GMT 57.215698 45.636692 35,000 77 484 0
2020-03-27 12:13:24 GMT 57.210793 45.596275 35,000 77 484 -64
2020-03-27 12:13:13 GMT 57.205856 45.555782 35,000 77 483 64
2020-03-27 12:13:03 GMT 57.200775 45.514214 35,000 77 483 0
2020-03-27 12:12:53 GMT 57.195801 45.473564 35,000 77 483 0
2020-03-27 12:12:42 GMT 57.190590 45.431213 35,000 77 483 0
2020-03-27 12:12:33 GMT 57.185654 45.391254 35,000 77 482 0
2020-03-27 12:12:22 GMT 57.180496 45.349503 35,000 77 482 -64
2020-03-27 12:12:12 GMT 57.175411 45.308235 35,000 77 482 64
2020-03-27 12:12:02 GMT 57.170425 45.268223 35,000 77 482 0
2020-03-27 12:11:51 GMT 57.164749 45.222916 35,000 77 482 64
2020-03-27 12:11:40 GMT 57.159805 45.183250 35,000 77 482 64
2020-03-27 12:11:30 GMT 57.154816 45.143421 35,000 76 482 0
2020-03-27 12:11:20 GMT 57.149857 45.104103 35,000 76 482 64
2020-03-27 12:11:11 GMT 57.144653 45.062916 35,000 76 482 0
2020-03-27 12:10:59 GMT 57.139069 45.018711 35,000 76 481 0
2020-03-27 12:10:49 GMT 57.133804 44.977341 35,000 76 481 0
2020-03-27 12:10:39 GMT 57.129185 44.940994 35,000 76 481 0
2020-03-27 12:10:30 GMT 57.123833 44.899261 35,000 76 480 0
2020-03-27 12:10:18 GMT 57.118572 44.857975 35,000 76 480 0
2020-03-27 12:10:08 GMT 57.113358 44.817486 35,000 76 480 0
2020-03-27 12:09:59 GMT 57.108398 44.778812 35,000 76 480 0
2020-03-27 12:09:48 GMT 57.102997 44.737186 35,000 76 481 0
2020-03-27 12:09:39 GMT 57.098320 44.700802 35,000 76 482 0
2020-03-27 12:09:36 GMT 57.096786 44.688927 35,000 76 482 64
2020-03-27 12:09:28 GMT 57.088451 44.624870 35,000 76 483 0
2020-03-27 12:09:16 GMT 57.085983 44.605820 35,000 76 483 0
2020-03-27 12:09:09 GMT 57.082260 44.577370 35,000 76 483 64
2020-03-27 12:08:58 GMT 57.077271 44.539173 35,000 76 483 0
2020-03-27 12:08:48 GMT 57.071777 44.497375 35,000 76 483 0
2020-03-27 12:08:38 GMT 57.066479 44.457062 35,000 76 482 0
2020-03-27 12:08:28 GMT 57.061295 44.417553 35,000 76 482 0
2020-03-27 12:08:18 GMT 57.055725 44.375641 35,000 76 482 0
2020-03-27 12:08:07 GMT 57.050491 44.336102 35,000 76 482 64
2020-03-27 12:07:56 GMT 57.044861 44.293697 35,000 76 482 0
2020-03-27 12:07:46 GMT 57.039597 44.254044 35,000 76 482 0
2020-03-27 12:07:36 GMT 57.034313 44.214657 35,000 76 482 0
2020-03-27 12:07:27 GMT 57.028725 44.173012 35,000 76 482 0
2020-03-27 12:07:16 GMT 57.023373 44.133320 35,000 76 483 0
2020-03-27 12:07:06 GMT 57.017834 44.092121 35,000 76 483 64
2020-03-27 12:06:55 GMT 57.012451 44.052258 35,000 76 483 0
2020-03-27 12:06:52 GMT 57.010014 44.034267 35,000 75 483 64
2020-03-27 12:06:45 GMT 57.007050 44.012260 35,000 75 483 64
2020-03-27 12:06:36 GMT 57.001354 43.970387 35,000 75 483 0
2020-03-27 12:06:25 GMT 56.995880 43.930290 35,000 75 482 0
2020-03-27 12:06:15 GMT 56.990505 43.890911 35,000 75 482 0
2020-03-27 12:06:04 GMT 56.984875 43.849712 35,000 75 482 -64
2020-03-27 12:05:59 GMT 56.981289 43.823666 35,000 75 482 64
2020-03-27 12:05:54 GMT 56.979446 43.810471 35,000 75 482 64
2020-03-27 12:05:44 GMT 56.973747 43.768822 35,000 75 482 0
2020-03-27 12:05:38 GMT 56.969700 43.739586 35,000 75 481 0
2020-03-27 12:05:34 GMT 56.968369 43.729877 35,000 75 481 64
2020-03-27 12:05:24 GMT 56.962669 43.688728 35,000 75 481 -64
2020-03-27 12:05:13 GMT 56.957016 43.647907 35,000 75 480 0
2020-03-27 12:05:04 GMT 56.951496 43.608013 35,000 75 480 0
2020-03-27 12:04:58 GMT 56.947769 43.581474 35,000 75 480 0
2020-03-27 12:04:53 GMT 56.946075 43.569286 35,000 75 480 0
2020-03-27 12:04:43 GMT 56.940262 43.527660 35,000 75 479 0
2020-03-27 12:04:32 GMT 56.934677 43.488091 35,025 75 479 64
2020-03-27 12:04:23 GMT 56.929195 43.449066 35,000 75 480 0
2020-03-27 12:04:13 GMT 56.923565 43.409019 35,000 75 480 0
2020-03-27 12:04:02 GMT 56.917698 43.367466 35,000 75 480 0
2020-03-27 12:03:51 GMT 56.911926 43.326622 35,000 75 480 0
2020-03-27 12:03:42 GMT 56.906479 43.288612 35,000 75 480 0
2020-03-27 12:03:31 GMT 56.900665 43.247597 35,000 75 480 0
2020-03-27 12:03:22 GMT 56.895168 43.208961 35,000 75 480 -64
2020-03-27 12:03:11 GMT 56.889221 43.167686 35,000 75 480 64
2020-03-27 12:03:01 GMT 56.883575 43.128338 35,000 75 479 0
2020-03-27 12:02:50 GMT 56.877758 43.087669 35,000 75 479 0
2020-03-27 12:02:41 GMT 56.871704 43.045853 35,000 75 479 0
2020-03-27 12:02:29 GMT 56.865509 43.003063 35,000 75 480 0
2020-03-27 12:02:20 GMT 56.859554 42.961769 35,000 75 480 0
2020-03-27 12:02:08 GMT 56.853790 42.922039 35,000 75 481 -64
2020-03-27 12:01:58 GMT 56.847839 42.881439 35,000 75 481 0
2020-03-27 12:01:54 GMT 56.845169 42.863247 35,000 75 481 0
2020-03-27 12:01:48 GMT 56.841614 42.838783 35,000 75 481 64
2020-03-27 12:01:43 GMT 56.839211 42.822491 35,000 75 481 0
2020-03-27 12:01:39 GMT 56.837311 42.809429 35,000 75 481 -64
2020-03-27 12:01:27 GMT 56.829483 42.756302 35,000 74 480 -64
2020-03-27 12:01:23 GMT 56.827900 42.745499 35,000 74 480 0
2020-03-27 12:01:19 GMT 56.825546 42.729347 35,025 74 480 0
2020-03-27 12:01:14 GMT 56.822250 42.707031 35,025 74 480 64
2020-03-27 12:01:06 GMT 56.817657 42.675949 35,000 74 481 0
2020-03-27 12:00:59 GMT 56.813599 42.648411 35,000 74 481 0
2020-03-27 12:00:52 GMT 56.810028 42.624550 35,000 74 481 0
2020-03-27 12:00:48 GMT 56.807785 42.609360 35,000 74 481 64
2020-03-27 12:00:45 GMT 56.805416 42.593464 35,000 74 481 0
2020-03-27 12:00:38 GMT 56.801689 42.568478 35,000 74 481 -64
2020-03-27 12:00:32 GMT 56.798309 42.545586 35,000 74 481 -64
2020-03-27 12:00:27 GMT 56.795792 42.528763 35,000 74 481 0
2020-03-27 12:00:22 GMT 56.792816 42.508850 35,000 74 481 0
2020-03-27 12:00:17 GMT 56.789822 42.488739 35,000 74 481 0
2020-03-27 12:00:11 GMT 56.786545 42.466705 35,000 74 481 0
2020-03-27 12:00:08 GMT 56.784073 42.450230 35,000 74 481 0
2020-03-27 12:00:01 GMT 56.779625 42.420429 35,000 74 481 0
2020-03-27 11:59:57 GMT 56.778088 42.410328 35,000 74 481 -64
2020-03-27 11:59:50 GMT 56.774139 42.383965 35,000 74 481 0
2020-03-27 11:59:47 GMT 56.771988 42.369633 35,000 74 481 0
2020-03-27 11:59:41 GMT 56.767960 42.343109 35,000 74 480 0
2020-03-27 11:59:37 GMT 56.766174 42.331097 35,000 74 480 64
2020-03-27 11:59:29 GMT 56.761608 42.300907 35,000 74 480 64
2020-03-27 11:59:26 GMT 56.760178 42.291443 35,000 74 480 0
2020-03-27 11:59:20 GMT 56.755646 42.261486 35,000 74 480 -64
2020-03-27 11:59:16 GMT 56.754112 42.251469 35,000 74 480 0
2020-03-27 11:59:09 GMT 56.749512 42.221062 35,000 74 480 0
2020-03-27 11:59:06 GMT 56.747925 42.210712 35,000 74 480 0
2020-03-27 11:59:00 GMT 56.744293 42.186703 35,000 74 479 0
2020-03-27 11:58:56 GMT 56.742004 42.171707 35,000 74 479 0
2020-03-27 11:58:50 GMT 56.738148 42.146301 35,000 74 479 0
2020-03-27 11:58:46 GMT 56.736008 42.132568 35,000 74 479 0
2020-03-27 11:58:39 GMT 56.732162 42.107422 35,000 74 478 0
2020-03-27 11:58:36 GMT 56.729813 42.092079 35,000 74 478 0
2020-03-27 11:58:29 GMT 56.725998 42.067005 35,000 74 478 0
2020-03-27 11:58:25 GMT 56.723877 42.053261 35,000 74 477 0
2020-03-27 11:58:19 GMT 56.720032 42.028198 35,000 74 477 0
2020-03-27 11:58:15 GMT 56.717850 42.014111 35,000 74 477 0
2020-03-27 11:58:05 GMT 56.711700 41.974213 35,000 74 476 0
2020-03-27 11:57:58 GMT 56.707214 41.944942 35,000 74 476 0
2020-03-27 11:57:54 GMT 56.705704 41.935329 35,000 74 476 0
2020-03-27 11:57:48 GMT 56.701138 41.905930 35,025 74 475 0
2020-03-27 11:57:45 GMT 56.699696 41.896275 35,025 74 475 64
2020-03-27 11:57:36 GMT 56.694809 41.865032 35,000 74 475 128
2020-03-27 11:57:32 GMT 56.692528 41.850201 35,000 74 475 0
2020-03-27 11:57:27 GMT 56.687988 41.821259 35,000 74 476 -64
2020-03-27 11:57:24 GMT 56.686615 41.812420 35,000 74 476 0
2020-03-27 11:57:17 GMT 56.683411 41.791737 35,000 74 476 -64
2020-03-27 11:57:13 GMT 56.680004 41.770107 35,000 74 476 0
2020-03-27 11:57:07 GMT 56.677212 41.752033 35,000 74 476 0
2020-03-27 11:57:04 GMT 56.675301 41.739807 35,000 74 476 64
2020-03-27 11:57:01 GMT 56.673206 41.726341 35,000 74 476 0
2020-03-27 11:56:57 GMT 56.670959 41.711910 35,000 74 476 64
2020-03-27 11:56:54 GMT 56.669064 41.699848 35,000 74 476 0
2020-03-27 11:56:51 GMT 56.667015 41.686825 35,000 74 476 0
2020-03-27 11:56:46 GMT 56.664871 41.673286 35,000 74 476 0
2020-03-27 11:56:43 GMT 56.662766 41.659901 35,000 74 475 0
2020-03-27 11:56:39 GMT 56.660385 41.644878 35,000 74 475 64
2020-03-27 11:56:36 GMT 56.658554 41.633034 35,000 74 475 0
2020-03-27 11:56:33 GMT 56.656681 41.621349 35,000 74 475 0
2020-03-27 11:56:30 GMT 56.654354 41.606464 35,000 74 475 -64
2020-03-27 11:56:23 GMT 56.650162 41.580063 35,000 74 475 0
2020-03-27 11:56:16 GMT 56.646057 41.553898 35,000 73 474 0
2020-03-27 11:56:11 GMT 56.643677 41.538963 35,000 73 474 0
2020-03-27 11:56:05 GMT 56.640015 41.515915 35,000 73 474 0
2020-03-27 11:56:00 GMT 56.636993 41.496651 35,000 73 474 64
2020-03-27 11:55:55 GMT 56.633823 41.476665 35,000 73 473 0
2020-03-27 11:55:51 GMT 56.631542 41.462490 35,000 73 473 0
2020-03-27 11:55:48 GMT 56.629120 41.447338 35,000 73 473 0
2020-03-27 11:55:44 GMT 56.627609 41.437595 35,000 73 473 0
2020-03-27 11:55:41 GMT 56.625397 41.423683 35,000 73 472 0
2020-03-27 11:55:38 GMT 56.623032 41.409100 35,000 73 472 64
2020-03-27 11:55:35 GMT 56.621254 41.397903 35,000 73 472 0
2020-03-27 11:55:32 GMT 56.619644 41.387814 35,000 73 472 0
2020-03-27 11:55:24 GMT 56.615158 41.359749 35,000 73 472 0
2020-03-27 11:55:19 GMT 56.612045 41.340439 35,000 73 471 -64
2020-03-27 11:55:14 GMT 56.608887 41.320698 35,000 73 471 64
2020-03-27 11:55:11 GMT 56.607147 41.309711 35,000 73 471 0
2020-03-27 11:55:08 GMT 56.604961 41.296188 35,000 73 471 64
2020-03-27 11:55:01 GMT 56.600910 41.270851 35,000 73 471 64
2020-03-27 11:54:54 GMT 56.596394 41.242851 35,000 73 471 -64
2020-03-27 11:54:51 GMT 56.594833 41.233150 35,000 73 472 -64
2020-03-27 11:54:47 GMT 56.592484 41.218555 35,000 73 472 -64
2020-03-27 11:54:41 GMT 56.588573 41.194351 35,000 73 472 0
2020-03-27 11:54:32 GMT 56.583710 41.164356 35,000 73 471 64
2020-03-27 11:54:28 GMT 56.580917 41.147293 35,000 73 471 0
2020-03-27 11:54:23 GMT 56.576019 41.117081 35,000 73 471 -64
2020-03-27 11:54:20 GMT 56.571163 41.087067 35,000 73 471 64
2020-03-27 11:54:12 GMT 56.571163 41.087067 35,000 73 471 -64
2020-03-27 11:54:09 GMT 56.569534 41.077194 35,000 73 471 0
2020-03-27 11:54:05 GMT 56.565994 41.055492 35,000 73 471 0
2020-03-27 11:53:59 GMT 56.563385 41.039181 35,000 73 471 -64
2020-03-27 11:53:50 GMT 56.557159 41.001060 35,000 73 471 128
2020-03-27 11:53:42 GMT 56.552216 40.971024 35,000 73 472 0
2020-03-27 11:53:39 GMT 56.550888 40.962856 35,000 73 472 0
2020-03-27 11:53:35 GMT 56.548073 40.945702 35,000 73 472 0
2020-03-27 11:53:29 GMT 56.544395 40.923386 35,000 73 472 64
2020-03-27 11:53:23 GMT 56.540581 40.899956 35,000 73 472 64
2020-03-27 11:53:19 GMT 56.538158 40.885105 35,000 73 472 -64
2020-03-27 11:53:15 GMT 56.535736 40.870556 35,000 73 472 -64
2020-03-27 11:53:09 GMT 56.531937 40.847500 35,000 73 472 0
2020-03-27 11:53:05 GMT 56.529556 40.833103 35,000 73 472 0
2020-03-27 11:52:59 GMT 56.525543 40.808804 35,000 73 471 0
2020-03-27 11:52:56 GMT 56.523308 40.795238 35,000 73 471 0
2020-03-27 11:52:48 GMT 56.519028 40.769348 35,000 73 472 0
2020-03-27 11:52:45 GMT 56.517105 40.757694 35,000 73 472 64
2020-03-27 11:52:38 GMT 56.512833 40.731895 35,000 73 472 0
2020-03-27 11:52:34 GMT 56.510368 40.717133 35,000 73 472 0
2020-03-27 11:52:28 GMT 56.506256 40.692528 35,000 73 472 64
2020-03-27 11:52:23 GMT 56.502182 40.667973 35,000 73 472 0
2020-03-27 11:52:17 GMT 56.499985 40.654823 35,000 73 472 0
2020-03-27 11:52:12 GMT 56.495956 40.630688 35,000 73 472 -64
2020-03-27 11:52:08 GMT 56.493423 40.615425 35,000 73 472 -64
2020-03-27 11:52:01 GMT 56.489231 40.590534 35,000 73 472 64
2020-03-27 11:51:57 GMT 56.487076 40.577503 35,000 73 472 0
2020-03-27 11:51:51 GMT 56.482910 40.552700 35,000 73 472 64
2020-03-27 11:51:47 GMT 56.480713 40.539467 35,000 73 472 0
2020-03-27 11:51:41 GMT 56.476059 40.511742 35,000 73 472 0
2020-03-27 11:51:36 GMT 56.474075 40.499931 35,000 73 473 -128
2020-03-27 11:51:30 GMT 56.469315 40.471634 35,000 73 472 -128
2020-03-27 11:51:26 GMT 56.467575 40.461399 35,000 73 472 -64
2020-03-27 11:51:22 GMT 56.464512 40.443165 35,000 72 471 0
2020-03-27 11:51:17 GMT 56.461304 40.424194 35,000 72 471 0
2020-03-27 11:51:14 GMT 56.459297 40.412350 35,000 72 471 0
2020-03-27 11:51:09 GMT 56.456314 40.394566 35,000 72 470 0
2020-03-27 11:51:06 GMT 56.454689 40.384972 35,000 72 470 0
2020-03-27 11:51:01 GMT 56.451756 40.367718 35,000 72 470 0
2020-03-27 11:50:56 GMT 56.448406 40.347893 35,000 72 469 0
2020-03-27 11:50:53 GMT 56.445614 40.331497 35,000 72 469 0
2020-03-27 11:50:49 GMT 56.443005 40.316132 35,000 72 469 0
2020-03-27 11:50:45 GMT 56.441711 40.308506 35,000 72 469 0
2020-03-27 11:50:41 GMT 56.438965 40.292442 35,000 72 469 0
2020-03-27 11:50:36 GMT 56.435394 40.271549 35,000 72 468 0
2020-03-27 11:50:32 GMT 56.432281 40.253239 35,000 72 468 0
2020-03-27 11:50:26 GMT 56.428802 40.232681 35,000 72 468 0
2020-03-27 11:50:20 GMT 56.425270 40.212021 35,000 72 468 64
2020-03-27 11:50:15 GMT 56.422195 40.194168 35,000 72 468 64
2020-03-27 11:50:10 GMT 56.418915 40.174919 35,000 72 469 64
2020-03-27 11:50:05 GMT 56.415710 40.156277 35,000 72 469 -64
2020-03-27 11:50:00 GMT 56.411957 40.134220 35,000 72 469 -64
2020-03-27 11:49:55 GMT 56.409393 40.119324 35,000 72 469 0
2020-03-27 11:49:49 GMT 56.405483 40.096748 35,000 72 469 -64
2020-03-27 11:49:44 GMT 56.402573 40.079788 35,025 72 469 64
2020-03-27 11:49:39 GMT 56.398682 40.057068 35,000 72 469 0
2020-03-27 11:49:35 GMT 56.396118 40.042171 35,000 72 469 64
2020-03-27 11:49:32 GMT 56.394871 40.034950 35,000 72 469 64
2020-03-27 11:49:25 GMT 56.390030 40.006969 35,000 72 469 -64
2020-03-27 11:49:22 GMT 56.387794 39.993923 35,000 72 469 -64
2020-03-27 11:49:18 GMT 56.385040 39.978165 35,000 72 469 -64
2020-03-27 11:49:15 GMT 56.383438 39.968845 35,025 72 469 -64
2020-03-27 11:49:12 GMT 56.381561 39.958023 35,025 72 469 0
2020-03-27 11:49:04 GMT 56.376663 39.929726 35,025 72 469 128
2020-03-27 11:49:01 GMT 56.374832 39.919323 35,000 72 469 128
2020-03-27 11:48:57 GMT 56.371628 39.900681 35,000 72 469 64
2020-03-27 11:48:54 GMT 56.369934 39.891026 35,000 72 469 -64
2020-03-27 11:48:51 GMT 56.367737 39.878372 35,000 72 469 -64
2020-03-27 11:48:43 GMT 56.363297 39.852989 35,000 72 469 -64
2020-03-27 11:48:40 GMT 56.361027 39.839859 35,000 72 469 -64
2020-03-27 11:48:33 GMT 56.356510 39.814198 35,000 72 468 0
2020-03-27 11:48:29 GMT 56.354183 39.800804 35,000 72 468 -64
2020-03-27 11:48:23 GMT 56.350136 39.777458 35,000 72 467 0
2020-03-27 11:48:20 GMT 56.347107 39.760380 35,000 72 467 -64
2020-03-27 11:48:16 GMT 56.345898 39.753342 35,000 72 467 0
2020-03-27 11:48:12 GMT 56.343292 39.738495 35,025 72 467 0
2020-03-27 11:48:09 GMT 56.340683 39.723564 35,000 72 466 -64
2020-03-27 11:48:06 GMT 56.338806 39.712830 35,025 72 466 0
2020-03-27 11:48:03 GMT 56.332863 39.679012 35,025 72 465 0
2020-03-27 11:47:57 GMT 56.332863 39.679012 35,025 72 466 -64
2020-03-27 11:47:52 GMT 56.329975 39.662788 35,025 72 465 0
2020-03-27 11:47:47 GMT 56.326115 39.640648 35,025 72 465 0
2020-03-27 11:47:41 GMT 56.323040 39.623394 35,025 72 465 64
2020-03-27 11:47:36 GMT 56.319550 39.603481 35,025 72 465 0
2020-03-27 11:47:32 GMT 56.316479 39.586143 35,025 72 466 64
2020-03-27 11:47:26 GMT 56.312939 39.566319 35,000 72 466 320
2020-03-27 11:47:21 GMT 56.309784 39.548367 34,975 72 467 -64
2020-03-27 11:47:15 GMT 56.305710 39.525478 35,000 72 467 64
2020-03-27 11:47:10 GMT 56.302689 39.508499 35,000 72 467 640
2020-03-27 11:47:05 GMT 56.299160 39.488811 34,750 72 468 896
2020-03-27 11:47:00 GMT 56.295822 39.470131 34,875 72 468 896
2020-03-27 11:46:56 GMT 56.292408 39.451046 34,750 72 467 1088
2020-03-27 11:46:51 GMT 56.289642 39.435341 34,700 72 467 960
2020-03-27 11:46:45 GMT 56.286217 39.416370 34,625 72 467 1024
2020-03-27 11:46:40 GMT 56.282684 39.396641 34,525 72 467 1024
2020-03-27 11:46:35 GMT 56.279434 39.378578 34,450 72 466 1024
2020-03-27 11:46:30 GMT 56.276070 39.359634 34,350 72 466 1024
2020-03-27 11:46:25 GMT 56.272614 39.340294 34,275 72 465 960
2020-03-27 11:46:20 GMT 56.268906 39.319820 34,175 72 464 960
2020-03-27 11:46:13 GMT 56.265015 39.298264 34,075 71 462 1536
2020-03-27 11:46:09 GMT 56.262428 39.283848 33,975 71 462 1536
2020-03-27 11:46:05 GMT 56.259125 39.265568 33,500 71 462 1280
2020-03-27 11:45:59 GMT 56.255630 39.246078 33,700 71 462 1728
2020-03-27 11:45:53 GMT 56.251831 39.225269 33,525 71 462 1856
2020-03-27 11:45:48 GMT 56.248508 39.206860 33,375 71 462 1728
2020-03-27 11:45:44 GMT 56.245346 39.189346 33,225 72 463 1792
2020-03-27 11:45:38 GMT 56.241669 39.169090 33,075 71 463 1792
2020-03-27 11:45:33 GMT 56.238556 39.151943 32,925 71 463 1792
2020-03-27 11:45:28 GMT 56.235336 39.134247 32,825 71 463 1600
2020-03-27 11:45:23 GMT 56.232216 39.117081 32,675 71 463 1408
2020-03-27 11:45:18 GMT 56.228539 39.096992 32,525 71 462 1472
2020-03-27 11:45:14 GMT 56.225048 39.077682 32,400 71 462 1600
2020-03-27 11:45:07 GMT 56.221649 39.059143 32,275 71 462 1856
2020-03-27 11:45:01 GMT 56.217552 39.036572 32,075 71 462 1984
2020-03-27 11:44:57 GMT 56.214901 39.022064 31,975 71 462 1920
2020-03-27 11:44:52 GMT 56.211639 39.004459 30,050 71 462 1280
2020-03-27 11:44:47 GMT 56.207840 38.983738 31,625 71 462 1920
2020-03-27 11:44:41 GMT 56.204315 38.964428 31,450 71 462 1984
2020-03-27 11:44:36 GMT 56.200928 38.945866 31,275 71 462 1920
2020-03-27 11:44:31 GMT 56.197128 38.925224 31,100 71 462 1856
2020-03-27 11:44:27 GMT 56.193787 38.906998 30,950 71 462 1280
2020-03-27 11:44:21 GMT 56.190319 38.888340 30,800 71 461 1344
2020-03-27 11:44:18 GMT 56.188599 38.878899 30,750 71 461 1408
2020-03-27 11:44:14 GMT 56.186050 38.864967 30,675 71 460 1472
2020-03-27 11:44:11 GMT 56.183990 38.853924 30,600 71 458 1472
2020-03-27 11:44:08 GMT 56.181942 38.842766 30,525 71 458 1472
2020-03-27 11:44:04 GMT 56.179146 38.827744 30,400 71 457 1472
2020-03-27 11:44:00 GMT 56.176529 38.813534 30,325 71 456 1472
2020-03-27 11:43:57 GMT 56.175003 38.805084 30,250 71 455 1472
2020-03-27 11:43:53 GMT 56.171906 38.788563 30,150 71 454 1536
2020-03-27 11:43:50 GMT 56.166550 38.759766 30,050 71 435 2112
2020-03-27 11:43:45 GMT 56.166550 38.759766 29,925 71 451 1600
2020-03-27 11:43:41 GMT 56.163300 38.742039 29,800 71 449 1664
2020-03-27 11:43:35 GMT 56.160107 38.724918 29,675 71 449 1792
2020-03-27 11:43:30 GMT 56.156849 38.707321 29,525 71 448 1792
2020-03-27 11:43:27 GMT 56.153137 38.687439 29,350 71 447 1856
2020-03-27 11:43:19 GMT 56.149887 38.669876 29,200 71 445 1856
2020-03-27 11:43:16 GMT 56.148235 38.660976 29,125 71 445 1728
2020-03-27 11:43:13 GMT 56.145905 38.648571 29,075 71 444 1728
2020-03-27 11:43:07 GMT 56.141510 38.624931 28,825 71 442 1856
2020-03-27 11:43:03 GMT 56.139439 38.614025 28,725 71 442 1920
2020-03-27 11:42:59 GMT 56.136887 38.600296 28,525 71 440 1856
2020-03-27 11:42:56 GMT 56.134964 38.589893 28,500 71 440 1792
2020-03-27 11:42:51 GMT 56.131573 38.571796 28,425 71 440 1792
2020-03-27 11:42:46 GMT 56.128407 38.554974 28,200 71 438 1984
2020-03-27 11:42:43 GMT 56.125809 38.541039 28,075 71 437 2048
2020-03-27 11:42:37 GMT 56.122604 38.523975 27,825 71 436 2112
2020-03-27 11:42:34 GMT 56.120117 38.510773 27,750 71 435 2112
2020-03-27 11:42:29 GMT 56.117420 38.496437 27,600 71 435 2112
2020-03-27 11:42:25 GMT 56.115276 38.484852 27,100 71 431 1856
2020-03-27 11:42:21 GMT 56.112534 38.470375 27,400 71 434 1984
2020-03-27 11:42:18 GMT 56.107681 38.444656 26,075 71 416 2496
2020-03-27 11:42:15 GMT 56.107681 38.444656 27,100 71 431 1856
2020-03-27 11:42:11 GMT 56.106033 38.435837 27,025 71 431 1856
2020-03-27 11:42:08 GMT 56.103966 38.424854 26,925 71 430 1856
2020-03-27 11:42:05 GMT 56.102337 38.416100 26,850 71 429 1856
2020-03-27 11:42:02 GMT 56.100723 38.407536 26,625 71 427 1728
2020-03-27 11:41:58 GMT 56.098068 38.393471 26,300 71 420 2304
2020-03-27 11:41:55 GMT 56.095726 38.381336 26,525 71 425 1664
2020-03-27 11:41:52 GMT 56.094234 38.373356 26,300 71 423 1856
2020-03-27 11:41:49 GMT 56.091751 38.360180 26,300 71 420 2304
2020-03-27 11:41:45 GMT 56.089554 38.348694 26,075 71 421 2240
2020-03-27 11:41:41 GMT 56.083603 38.317066 26,000 71 419 2368
2020-03-27 11:41:36 GMT 56.083603 38.317066 25,850 71 419 2240
2020-03-27 11:41:32 GMT 56.076874 38.281776 25,350 71 416 2560
2020-03-27 11:41:25 GMT 56.076874 38.281776 25,475 71 417 2432
2020-03-27 11:41:22 GMT 56.074951 38.271622 25,350 71 417 2560
2020-03-27 11:41:17 GMT 56.072342 38.257973 25,175 71 416 2624
2020-03-27 11:41:14 GMT 56.070309 38.247440 24,325 71 414 2304
2020-03-27 11:41:09 GMT 56.067097 38.230618 24,825 71 415 2368
2020-03-27 11:41:05 GMT 56.064583 38.217316 24,475 71 413 2240
2020-03-27 11:41:01 GMT 56.062115 38.204353 24,500 71 413 2240
2020-03-27 11:40:58 GMT 56.059799 38.192307 24,375 71 412 2240
2020-03-27 11:40:54 GMT 56.057880 38.182125 24,250 71 411 2304
2020-03-27 11:40:48 GMT 56.053501 38.159382 23,975 71 408 2560
2020-03-27 11:40:44 GMT 56.051605 38.149361 23,825 71 408 2560
2020-03-27 11:40:41 GMT 56.049500 38.138351 23,675 71 407 2624
2020-03-27 11:40:37 GMT 56.047440 38.127636 23,050 71 402 2176
2020-03-27 11:40:34 GMT 56.045197 38.115898 23,375 71 407 2560
2020-03-27 11:40:30 GMT 56.043354 38.106251 23,250 71 406 2496
2020-03-27 11:40:26 GMT 56.040710 38.092430 22,825 71 406 2368
2020-03-27 11:40:23 GMT 56.039257 38.085052 22,975 71 404 2240
2020-03-27 11:40:19 GMT 56.036774 38.071957 22,800 71 402 2176
2020-03-27 11:40:16 GMT 56.034973 38.062649 22,700 71 401 2240
2020-03-27 11:40:13 GMT 56.033020 38.052349 22,575 71 400 2112
2020-03-27 11:40:10 GMT 56.030869 38.041245 21,775 70 398 2112
2020-03-27 11:40:06 GMT 56.028122 38.027012 22,275 70 392 2368
2020-03-27 11:40:02 GMT 56.026291 38.017441 22,175 70 390 2560
2020-03-27 11:39:58 GMT 56.024361 38.007374 22,050 71 394 2240
2020-03-27 11:39:52 GMT 56.020065 37.985229 21,825 70 391 2496
2020-03-27 11:39:49 GMT 56.018822 37.978706 21,425 70 389 2560
2020-03-27 11:39:46 GMT 56.016998 37.969498 21,425 70 388 2688
2020-03-27 11:39:43 GMT 56.015030 37.959179 21,425 70 387 2752
2020-03-27 11:39:38 GMT 56.012329 37.945362 21,200 70 386 2688
2020-03-27 11:39:34 GMT 56.009510 37.930725 20,925 70 385 2496
2020-03-27 11:39:31 GMT 56.007694 37.921455 20,550 70 382 1920
2020-03-27 11:39:28 GMT 56.005974 37.912533 20,725 70 382 1920
2020-03-27 11:39:24 GMT 56.003632 37.900417 20,600 70 379 1600
2020-03-27 11:39:20 GMT 56.001755 37.890678 20,525 70 377 1728
2020-03-27 11:39:16 GMT 55.999191 37.877529 20,375 70 373 2624
2020-03-27 11:39:13 GMT 55.998001 37.871452 20,300 70 372 2880
2020-03-27 11:39:10 GMT 55.995621 37.859303 20,100 70 370 3008
2020-03-27 11:39:07 GMT 55.994110 37.851479 19,925 70 370 2944
2020-03-27 11:39:04 GMT 55.992893 37.845325 19,850 70 369 2880
2020-03-27 11:39:01 GMT 55.991447 37.837856 19,725 70 368 2880
2020-03-27 11:38:58 GMT 55.989212 37.826176 19,525 70 367 2752
2020-03-27 11:38:55 GMT 55.987473 37.817356 19,300 70 365 3008
2020-03-27 11:38:52 GMT 55.985863 37.809277 19,250 70 365 3008
2020-03-27 11:38:47 GMT 55.983444 37.796631 19,025 70 364 3200
2020-03-27 11:38:44 GMT 55.981430 37.786392 18,900 70 363 3200
2020-03-27 11:38:38 GMT 55.978367 37.770824 18,550 70 362 2944
2020-03-27 11:38:33 GMT 55.975571 37.756348 18,300 70 358 2624
2020-03-27 11:38:30 GMT 55.974270 37.749710 18,100 70 358 2624
2020-03-27 11:38:27 GMT 55.972687 37.741531 18,075 70 358 2560
2020-03-27 11:38:24 GMT 55.970921 37.732456 17,925 70 355 2176
2020-03-27 11:38:21 GMT 55.969105 37.723103 17,850 70 353 1728
2020-03-27 11:38:17 GMT 55.966541 37.710056 17,650 70 348 1152
2020-03-27 11:38:13 GMT 55.964588 37.700012 17,575 70 343 1408
2020-03-27 11:38:09 GMT 55.961151 37.682522 17,400 70 335 2432
2020-03-27 11:38:02 GMT 55.959137 37.672119 17,350 70 331 3200
2020-03-27 11:37:57 GMT 55.957142 37.661736 17,025 70 329 3584
2020-03-27 11:37:53 GMT 55.954514 37.648315 16,725 71 328 4032
2020-03-27 11:37:50 GMT 55.953415 37.642654 16,625 71 328 4096
2020-03-27 11:37:47 GMT 55.951401 37.632168 16,300 71 329 4352
2020-03-27 11:37:42 GMT 55.948296 37.615814 15,825 71 331 3456
2020-03-27 11:37:39 GMT 55.948296 37.615814 15,825 71 331 3456
2020-03-27 11:37:35 GMT 55.945923 37.603195 15,525 70 331 2176
2020-03-27 11:37:30 GMT 55.943268 37.590153 15,325 67 330 1280
2020-03-27 11:37:24 GMT 55.939819 37.575489 15,200 65 328 1024
2020-03-27 11:37:21 GMT 55.938126 37.569164 15,150 63 327 960
2020-03-27 11:37:15 GMT 55.933956 37.554703 15,050 61 326 896
2020-03-27 11:37:12 GMT 55.931118 37.545860 14,975 58 322 1408
2020-03-27 11:37:09 GMT 55.929070 37.540028 14,950 57 321 1728
2020-03-27 11:37:04 GMT 55.924164 37.526718 14,800 55 318 2752
2020-03-27 11:37:01 GMT 55.922363 37.522087 14,650 55 316 3136
2020-03-27 11:36:58 GMT 55.920868 37.518143 14,550 55 315 3392
2020-03-27 11:36:54 GMT 55.917107 37.508438 13,900 55 312 3456
2020-03-27 11:36:51 GMT 55.914127 37.500713 14,100 55 312 3392
2020-03-27 11:36:48 GMT 55.912537 37.496670 14,000 55 312 3392
2020-03-27 11:36:42 GMT 55.906910 37.482002 13,675 55 310 3264
2020-03-27 11:36:39 GMT 55.904022 37.474533 13,400 55 308 3264
2020-03-27 11:36:34 GMT 55.899902 37.463963 13,125 55 306 3456
2020-03-27 11:36:31 GMT 55.897552 37.457802 12,950 55 304 3584
2020-03-27 11:36:27 GMT 55.894993 37.451279 12,775 55 304 3648
2020-03-27 11:36:24 GMT 55.892624 37.445152 12,600 55 303 3648
2020-03-27 11:36:21 GMT 55.889603 37.437328 12,250 55 302 3584
2020-03-27 11:36:18 GMT 55.887123 37.430935 12,175 55 302 3520
2020-03-27 11:36:13 GMT 55.883148 37.420601 11,875 55 300 3456
2020-03-27 11:36:10 GMT 55.881729 37.416939 11,775 55 300 3392
2020-03-27 11:36:06 GMT 55.878559 37.408707 11,550 55 298 3328
2020-03-27 11:36:01 GMT 55.874649 37.398319 11,150 56 295 3072
2020-03-27 11:35:57 GMT 55.871063 37.388878 11,025 56 292 3200
2020-03-27 11:35:53 GMT 55.868366 37.381668 10,675 56 291 3520
2020-03-27 11:35:50 GMT 55.865757 37.374630 10,625 56 289 3840
2020-03-27 11:35:46 GMT 55.862778 37.366333 10,375 57 288 4224
2020-03-27 11:35:43 GMT 55.860870 37.361069 10,175 58 288 4224
2020-03-27 11:35:40 GMT 55.858959 37.355659 9,925 58 289 3648
2020-03-27 11:35:37 GMT 55.856541 37.348537 9,750 59 290 3072
2020-03-27 11:35:34 GMT 55.855408 37.345108 9,650 60 290 2752
2020-03-27 11:35:30 GMT 55.852020 37.334290 9,375 62 288 1600
2020-03-27 11:35:27 GMT 55.849930 37.327080 9,325 66 285 1024
2020-03-27 11:35:22 GMT 55.847416 37.317207 9,225 68 282 1088
2020-03-27 11:35:18 GMT 55.846020 37.310944 9,200 68 282 1152
2020-03-27 11:35:14 GMT 55.844391 37.302277 9,100 74 273 1920
2020-03-27 11:35:11 GMT 55.843231 37.293507 8,975 80 267 2112
2020-03-27 11:35:08 GMT 55.842575 37.284763 8,825 87 263 2112
2020-03-27 11:35:04 GMT 55.842484 37.280903 8,725 89 263 2048
2020-03-27 11:35:00 GMT 55.845154 37.256470 8,475 105 261 2048
2020-03-27 11:34:54 GMT 55.845154 37.256470 8,350 112 260 2112
2020-03-27 11:34:50 GMT 55.846859 37.250004 8,225 120 258 2048
2020-03-27 11:34:47 GMT 55.848438 37.245281 8,150 124 258 1984
2020-03-27 11:34:43 GMT 55.852303 37.236614 7,975 137 256 1920
2020-03-27 11:34:39 GMT 55.854866 37.232239 7,875 139 256 1920
2020-03-27 11:34:36 GMT 55.857193 37.228973 7,800 144 256 2048
2020-03-27 11:34:33 GMT 55.860352 37.225094 7,700 148 256 2112
2020-03-27 11:34:29 GMT 55.864471 37.220512 7,600 148 256 2112
2020-03-27 11:34:25 GMT 55.869389 37.215588 7,400 151 256 2112
2020-03-27 11:34:21 GMT 55.875870 37.210110 7,225 156 256 2112
2020-03-27 11:34:18 GMT 55.875870 37.210110 7,125 178 256 2048
2020-03-27 11:34:15 GMT 55.879074 37.208031 7,075 163 256 2048
2020-03-27 11:34:12 GMT 55.882935 37.206230 6,950 168 256 2048
2020-03-27 11:34:08 GMT 55.887360 37.205116 6,825 178 256 2048
2020-03-27 11:34:05 GMT 55.890289 37.204952 6,750 181 256 2048
2020-03-27 11:34:02 GMT 55.895325 37.205700 6,600 191 254 1984
2020-03-27 11:33:58 GMT 55.899902 37.207531 6,350 197 253 1920
2020-03-27 11:33:55 GMT 55.904892 37.211025 6,325 209 249 2176
2020-03-27 11:33:48 GMT 55.909515 37.215939 6,025 229 239 2240
2020-03-27 11:33:45 GMT 55.912216 37.219707 6,025 224 242 2240
2020-03-27 11:33:42 GMT 55.914639 37.223824 5,900 231 238 2304
2020-03-27 11:33:39 GMT 55.916824 37.228546 5,825 233 236 2432
2020-03-27 11:33:36 GMT 55.918407 37.232666 5,700 240 229 2880
2020-03-27 11:33:32 GMT 55.920456 37.238907 5,500 241 226 2944
2020-03-27 11:33:28 GMT 55.923065 37.247147 5,200 241 224 3648
2020-03-27 11:33:25 GMT 55.924740 37.252407 5,100 241 224 3648
2020-03-27 11:33:19 GMT 55.927486 37.261250 4,825 241 225 3648
2020-03-27 11:33:16 GMT 55.928928 37.265797 4,600 241 225 3136
2020-03-27 11:33:13 GMT 55.930046 37.269318 4,475 241 224 2816
2020-03-27 11:33:08 GMT 55.932747 37.277985 4,225 241 222 2112
2020-03-27 11:33:05 GMT 55.934006 37.282104 4,125 241 218 1600
2020-03-27 11:32:59 GMT 55.937401 37.292831 3,975 241 204 1152
2020-03-27 11:32:56 GMT 55.938766 37.297169 3,925 241 202 1344
2020-03-27 11:32:53 GMT 55.939865 37.300499 3,825 241 191 1472
2020-03-27 11:32:47 GMT 55.942520 37.308739 3,725 240 184 1024
2020-03-27 11:32:44 GMT 55.944103 37.313519 3,650 240 170 1280
2020-03-27 11:32:40 GMT 55.945316 37.317123 3,600 239 164 1664
2020-03-27 11:32:36 GMT 55.947372 37.323303 3,450 239 157 2496
2020-03-27 11:32:28 GMT 55.950073 37.330959 3,100 238 154 2496
2020-03-27 11:32:25 GMT 55.951134 37.334030 3,000 237 153 2368
2020-03-27 11:32:18 GMT 55.953873 37.341446 2,550 236 151 1920
2020-03-27 11:32:15 GMT 55.955063 37.344608 2,650 236 151 2176
2020-03-27 11:32:10 GMT 55.957325 37.350426 800 256 139 1920
2020-03-27 11:32:05 GMT 55.959049 37.354977 2,300 236 150 2048
2020-03-27 11:31:56 GMT 55.962708 37.364754 2,000 240 148 2368
2020-03-27 11:31:46 GMT 55.965332 37.374542 1,575 252 148 3264
2020-03-27 11:31:43 GMT 55.965958 37.378567 1,400 256 147 2752
2020-03-27 11:31:36 GMT 55.967148 37.386646 1,100 256 145 1728
2020-03-27 11:31:33 GMT 55.967834 37.391220 1,075 256 143 1728
2020-03-27 11:31:28 GMT 55.968613 37.396461 800 255 137 2368
2020-03-27 11:31:24 GMT 55.969055 37.399349 550 255 137 2304
2020-03-27 11:31:11 GMT 55.971313 37.414108 325 255 138 1856
2020-03-27 11:30:28 GMT 55.975330 37.441341 0 75 0
2020-03-27 11:30:09 GMT 55.975342 37.441448 0 75 6
2020-03-27 11:25:58 GMT 55.977924 37.440933 0 75 4
2020-03-27 11:25:52 GMT 55.978043 37.440868 0 75 5
2020-03-27 11:25:44 GMT 55.978168 37.440804 0 75 4
2020-03-27 11:25:05 GMT 55.979038 37.440407 0 75 8
2020-03-27 11:24:23 GMT 55.979973 37.439945 0 75 8
2020-03-27 11:24:00 GMT 55.980602 37.439045 0 75 8
2020-03-27 11:23:49 GMT 55.980469 37.438076 0 75 17
2020-03-27 11:23:37 GMT 55.980171 37.436085 0 75 23
2020-03-27 11:23:11 GMT 55.979553 37.431938 0 18
2020-03-27 11:22:56 GMT 55.979275 37.430077 0 15
2020-03-27 11:22:47 GMT 55.979118 37.429047 0 12
2020-03-27 11:22:23 GMT 55.978775 37.427437 0 9
2020-03-27 11:22:20 GMT 55.978611 37.427330 0 8
2020-03-27 11:21:43 GMT 55.977493 37.426571 0 10
2020-03-27 11:21:27 GMT 55.977310 37.425358 0 10
2020-03-27 11:21:15 GMT 55.977196 37.424595 0 8
2020-03-27 11:21:06 GMT 55.977310 37.424030 0 8

Making use of Plane Finder data

You are free to use the raw flight data, aircraft information and images provided in this report for your own purposes provided the data is correctly attributed to Plane Finder. We ask that you please credit Plane Finder and link to planefinder.net in close proximity to the content.

Optionally one of the following logos (no smaller then 150x24px) can be used and must link to planefinder.net

Embedding the Plane Finder map

You are welcome to embed the Plane Finder playback map on your website to offer visitors a more interactive experience. We suggest using the following HTML code:

<iframe src="//planefinder.net/data/report/SU1768-RA-89124-7700-squawk-2020-03-27/map" width="800" height="600" seamless="seamless"></iframe>

Where our data comes from

Plane Finder has a global network of data feeds and antenna radars that receive data broadcast directly from aircraft. The primary technologies used are ADS-B and MLAT. We also show feeds from the FAA and a FLARM glider feed.

Click here to find out more about the Plane Finder network.

How we collect our data